sensor_id;sensor_type;location;lat;lon;timestamp;P1;durP1;ratioP1;P2;durP2;ratioP2
17510;SDS011;8873;48.818;9.422;2023-08-01T00:00:09;6.00;;;3.47;;
17510;SDS011;8873;48.818;9.422;2023-08-01T00:02:37;5.18;;;3.80;;
17510;SDS011;8873;48.818;9.422;2023-08-01T00:05:05;5.72;;;3.60;;
17510;SDS011;8873;48.818;9.422;2023-08-01T00:07:33;8.98;;;4.07;;
17510;SDS011;8873;48.818;9.422;2023-08-01T00:10:04;6.70;;;4.20;;
17510;SDS011;8873;48.818;9.422;2023-08-01T00:12:32;6.82;;;3.75;;
17510;SDS011;8873;48.818;9.422;2023-08-01T00:15:01;8.68;;;4.18;;
17510;SDS011;8873;48.818;9.422;2023-08-01T00:17:29;5.75;;;3.60;;
17510;SDS011;8873;48.818;9.422;2023-08-01T00:19:56;4.55;;;3.22;;
17510;SDS011;8873;48.818;9.422;2023-08-01T00:22:24;6.38;;;3.38;;
17510;SDS011;8873;48.818;9.422;2023-08-01T00:24:52;7.68;;;3.60;;
17510;SDS011;8873;48.818;9.422;2023-08-01T00:27:20;8.60;;;3.50;;
17510;SDS011;8873;48.818;9.422;2023-08-01T00:29:47;4.75;;;3.28;;
17510;SDS011;8873;48.818;9.422;2023-08-01T00:32:16;4.95;;;3.50;;
17510;SDS011;8873;48.818;9.422;2023-08-01T00:34:44;5.20;;;3.63;;
17510;SDS011;8873;48.818;9.422;2023-08-01T00:37:12;7.47;;;3.45;;
17510;SDS011;8873;48.818;9.422;2023-08-01T00:39:40;6.72;;;4.00;;
17510;SDS011;8873;48.818;9.422;2023-08-01T00:42:08;7.80;;;3.47;;
17510;SDS011;8873;48.818;9.422;2023-08-01T00:44:35;7.45;;;3.97;;
17510;SDS011;8873;48.818;9.422;2023-08-01T00:47:03;7.10;;;4.15;;
17510;SDS011;8873;48.818;9.422;2023-08-01T00:49:32;4.85;;;3.78;;
17510;SDS011;8873;48.818;9.422;2023-08-01T00:52:00;5.38;;;3.38;;
17510;SDS011;8873;48.818;9.422;2023-08-01T00:54:28;7.50;;;4.05;;
17510;SDS011;8873;48.818;9.422;2023-08-01T00:57:01;5.35;;;4.00;;
17510;SDS011;8873;48.818;9.422;2023-08-01T00:59:29;9.18;;;3.80;;
17510;SDS011;8873;48.818;9.422;2023-08-01T01:01:57;7.85;;;4.30;;
17510;SDS011;8873;48.818;9.422;2023-08-01T01:04:26;6.15;;;3.35;;
17510;SDS011;8873;48.818;9.422;2023-08-01T01:06:57;6.32;;;3.40;;
17510;SDS011;8873;48.818;9.422;2023-08-01T01:09:27;8.23;;;4.40;;
17510;SDS011;8873;48.818;9.422;2023-08-01T01:11:55;7.47;;;3.72;;
17510;SDS011;8873;48.818;9.422;2023-08-01T01:14:23;5.53;;;3.75;;
17510;SDS011;8873;48.818;9.422;2023-08-01T01:16:51;9.02;;;4.30;;
17510;SDS011;8873;48.818;9.422;2023-08-01T01:19:19;6.90;;;4.20;;
17510;SDS011;8873;48.818;9.422;2023-08-01T01:21:48;7.18;;;4.15;;
17510;SDS011;8873;48.818;9.422;2023-08-01T01:24:16;8.88;;;4.32;;
17510;SDS011;8873;48.818;9.422;2023-08-01T01:26:47;10.85;;;4.80;;
17510;SDS011;8873;48.818;9.422;2023-08-01T01:29:15;5.93;;;3.95;;
17510;SDS011;8873;48.818;9.422;2023-08-01T01:31:43;7.28;;;4.40;;
17510;SDS011;8873;48.818;9.422;2023-08-01T01:34:11;7.28;;;4.13;;
17510;SDS011;8873;48.818;9.422;2023-08-01T01:36:39;8.80;;;3.88;;
17510;SDS011;8873;48.818;9.422;2023-08-01T01:39:08;6.30;;;4.07;;
17510;SDS011;8873;48.818;9.422;2023-08-01T01:41:36;6.38;;;4.25;;
17510;SDS011;8873;48.818;9.422;2023-08-01T01:44:04;7.75;;;4.10;;
17510;SDS011;8873;48.818;9.422;2023-08-01T01:46:31;7.05;;;4.40;;
17510;SDS011;8873;48.818;9.422;2023-08-01T01:48:59;4.43;;;3.55;;
17510;SDS011;8873;48.818;9.422;2023-08-01T01:51:27;7.45;;;3.80;;
17510;SDS011;8873;48.818;9.422;2023-08-01T01:53:55;5.60;;;4.03;;
17510;SDS011;8873;48.818;9.422;2023-08-01T01:56:24;4.90;;;3.53;;
17510;SDS011;8873;48.818;9.422;2023-08-01T01:58:51;6.53;;;3.85;;
17510;SDS011;8873;48.818;9.422;2023-08-01T02:01:19;8.15;;;4.47;;
17510;SDS011;8873;48.818;9.422;2023-08-01T02:03:47;12.00;;;3.85;;
17510;SDS011;8873;48.818;9.422;2023-08-01T02:06:14;7.80;;;4.07;;
17510;SDS011;8873;48.818;9.422;2023-08-01T02:08:42;6.25;;;4.07;;
17510;SDS011;8873;48.818;9.422;2023-08-01T02:11:09;6.65;;;3.88;;
17510;SDS011;8873;48.818;9.422;2023-08-01T02:13:38;6.32;;;4.10;;
17510;SDS011;8873;48.818;9.422;2023-08-01T02:16:06;7.38;;;3.70;;
17510;SDS011;8873;48.818;9.422;2023-08-01T02:18:34;9.48;;;4.30;;
17510;SDS011;8873;48.818;9.422;2023-08-01T02:21:01;8.05;;;4.30;;
17510;SDS011;8873;48.818;9.422;2023-08-01T02:23:29;13.95;;;4.55;;
17510;SDS011;8873;48.818;9.422;2023-08-01T02:25:57;6.85;;;4.03;;
17510;SDS011;8873;48.818;9.422;2023-08-01T02:28:25;6.90;;;4.22;;
17510;SDS011;8873;48.818;9.422;2023-08-01T02:30:54;7.25;;;4.00;;
17510;SDS011;8873;48.818;9.422;2023-08-01T02:33:21;8.27;;;3.85;;
17510;SDS011;8873;48.818;9.422;2023-08-01T02:35:49;5.30;;;3.60;;
17510;SDS011;8873;48.818;9.422;2023-08-01T02:38:16;6.80;;;3.85;;
17510;SDS011;8873;48.818;9.422;2023-08-01T02:40:44;7.03;;;4.20;;
17510;SDS011;8873;48.818;9.422;2023-08-01T02:43:12;8.25;;;4.28;;
17510;SDS011;8873;48.818;9.422;2023-08-01T02:45:41;10.70;;;3.70;;
17510;SDS011;8873;48.818;9.422;2023-08-01T02:48:10;10.27;;;4.15;;
17510;SDS011;8873;48.818;9.422;2023-08-01T02:50:38;6.88;;;3.83;;
17510;SDS011;8873;48.818;9.422;2023-08-01T02:53:05;5.60;;;3.42;;
17510;SDS011;8873;48.818;9.422;2023-08-01T02:55:33;4.55;;;3.88;;
17510;SDS011;8873;48.818;9.422;2023-08-01T02:58:00;6.97;;;3.95;;
17510;SDS011;8873;48.818;9.422;2023-08-01T03:00:28;7.45;;;4.72;;
17510;SDS011;8873;48.818;9.422;2023-08-01T03:02:57;9.02;;;3.63;;
17510;SDS011;8873;48.818;9.422;2023-08-01T03:05:27;6.45;;;4.15;;
17510;SDS011;8873;48.818;9.422;2023-08-01T03:07:54;10.73;;;4.70;;
17510;SDS011;8873;48.818;9.422;2023-08-01T03:10:22;8.75;;;4.65;;
17510;SDS011;8873;48.818;9.422;2023-08-01T03:12:55;10.07;;;4.03;;
17510;SDS011;8873;48.818;9.422;2023-08-01T03:15:23;8.35;;;3.80;;
17510;SDS011;8873;48.818;9.422;2023-08-01T03:17:51;6.85;;;3.95;;
17510;SDS011;8873;48.818;9.422;2023-08-01T03:20:18;6.22;;;3.95;;
17510;SDS011;8873;48.818;9.422;2023-08-01T03:22:47;7.70;;;4.07;;
17510;SDS011;8873;48.818;9.422;2023-08-01T03:25:15;8.50;;;4.30;;
17510;SDS011;8873;48.818;9.422;2023-08-01T03:27:43;7.30;;;4.20;;
17510;SDS011;8873;48.818;9.422;2023-08-01T03:30:10;10.85;;;4.28;;
17510;SDS011;8873;48.818;9.422;2023-08-01T03:32:39;8.70;;;4.30;;
17510;SDS011;8873;48.818;9.422;2023-08-01T03:35:07;7.82;;;4.50;;
17510;SDS011;8873;48.818;9.422;2023-08-01T03:37:34;5.80;;;4.35;;
17510;SDS011;8873;48.818;9.422;2023-08-01T03:40:04;8.52;;;4.03;;
17510;SDS011;8873;48.818;9.422;2023-08-01T03:42:31;7.13;;;4.45;;
17510;SDS011;8873;48.818;9.422;2023-08-01T03:44:59;9.88;;;4.18;;
17510;SDS011;8873;48.818;9.422;2023-08-01T03:47:27;7.50;;;3.92;;
17510;SDS011;8873;48.818;9.422;2023-08-01T03:49:54;5.13;;;3.97;;
17510;SDS011;8873;48.818;9.422;2023-08-01T03:52:22;7.47;;;4.18;;
17510;SDS011;8873;48.818;9.422;2023-08-01T03:54:53;8.70;;;4.13;;
17510;SDS011;8873;48.818;9.422;2023-08-01T03:57:22;9.02;;;4.40;;
17510;SDS011;8873;48.818;9.422;2023-08-01T03:59:49;8.30;;;4.32;;
17510;SDS011;8873;48.818;9.422;2023-08-01T04:02:17;10.45;;;5.00;;
17510;SDS011;8873;48.818;9.422;2023-08-01T04:04:45;8.35;;;4.43;;
17510;SDS011;8873;48.818;9.422;2023-08-01T04:07:12;7.65;;;3.88;;
17510;SDS011;8873;48.818;9.422;2023-08-01T04:09:40;5.13;;;3.78;;
17510;SDS011;8873;48.818;9.422;2023-08-01T04:12:07;7.45;;;3.60;;
17510;SDS011;8873;48.818;9.422;2023-08-01T04:14:36;5.53;;;4.05;;
17510;SDS011;8873;48.818;9.422;2023-08-01T04:17:04;5.53;;;3.42;;
17510;SDS011;8873;48.818;9.422;2023-08-01T04:19:32;8.00;;;3.08;;
17510;SDS011;8873;48.818;9.422;2023-08-01T04:21:59;6.88;;;2.80;;
17510;SDS011;8873;48.818;9.422;2023-08-01T04:24:27;4.70;;;3.00;;
17510;SDS011;8873;48.818;9.422;2023-08-01T04:26:57;5.32;;;3.05;;
17510;SDS011;8873;48.818;9.422;2023-08-01T04:29:24;5.40;;;3.08;;
17510;SDS011;8873;48.818;9.422;2023-08-01T04:31:53;4.07;;;3.08;;
17510;SDS011;8873;48.818;9.422;2023-08-01T04:34:21;7.68;;;3.40;;
17510;SDS011;8873;48.818;9.422;2023-08-01T04:36:50;4.43;;;2.92;;
17510;SDS011;8873;48.818;9.422;2023-08-01T04:39:18;4.78;;;3.00;;
17510;SDS011;8873;48.818;9.422;2023-08-01T04:41:46;9.48;;;3.55;;
17510;SDS011;8873;48.818;9.422;2023-08-01T04:44:15;5.00;;;2.95;;
17510;SDS011;8873;48.818;9.422;2023-08-01T04:46:43;7.20;;;3.20;;
17510;SDS011;8873;48.818;9.422;2023-08-01T04:49:12;4.97;;;3.35;;
17510;SDS011;8873;48.818;9.422;2023-08-01T04:51:40;5.63;;;3.20;;
17510;SDS011;8873;48.818;9.422;2023-08-01T04:54:07;5.60;;;3.22;;
17510;SDS011;8873;48.818;9.422;2023-08-01T04:56:35;4.32;;;2.95;;
17510;SDS011;8873;48.818;9.422;2023-08-01T04:59:03;5.20;;;2.65;;
17510;SDS011;8873;48.818;9.422;2023-08-01T05:01:30;3.70;;;2.58;;
17510;SDS011;8873;48.818;9.422;2023-08-01T05:03:58;5.32;;;2.92;;
17510;SDS011;8873;48.818;9.422;2023-08-01T05:06:27;7.90;;;3.20;;
17510;SDS011;8873;48.818;9.422;2023-08-01T05:08:55;5.53;;;3.53;;
17510;SDS011;8873;48.818;9.422;2023-08-01T05:11:22;3.45;;;2.85;;
17510;SDS011;8873;48.818;9.422;2023-08-01T05:13:50;5.25;;;3.35;;
17510;SDS011;8873;48.818;9.422;2023-08-01T05:16:17;3.90;;;2.97;;
17510;SDS011;8873;48.818;9.422;2023-08-01T05:18:45;3.35;;;3.00;;
17510;SDS011;8873;48.818;9.422;2023-08-01T05:21:13;5.53;;;2.95;;
17510;SDS011;8873;48.818;9.422;2023-08-01T05:23:42;4.47;;;3.00;;
17510;SDS011;8873;48.818;9.422;2023-08-01T05:26:10;4.55;;;3.13;;
17510;SDS011;8873;48.818;9.422;2023-08-01T05:28:37;4.10;;;3.00;;
17510;SDS011;8873;48.818;9.422;2023-08-01T05:31:05;3.55;;;3.03;;
17510;SDS011;8873;48.818;9.422;2023-08-01T05:33:33;5.32;;;3.72;;
17510;SDS011;8873;48.818;9.422;2023-08-01T05:36:00;5.53;;;2.75;;
17510;SDS011;8873;48.818;9.422;2023-08-01T05:38:28;3.45;;;2.65;;
17510;SDS011;8873;48.818;9.422;2023-08-01T05:40:57;5.97;;;3.22;;
17510;SDS011;8873;48.818;9.422;2023-08-01T05:43:25;8.45;;;2.80;;
17510;SDS011;8873;48.818;9.422;2023-08-01T05:45:52;4.82;;;3.35;;
17510;SDS011;8873;48.818;9.422;2023-08-01T05:48:20;3.42;;;2.72;;
17510;SDS011;8873;48.818;9.422;2023-08-01T05:50:48;5.72;;;3.38;;
17510;SDS011;8873;48.818;9.422;2023-08-01T05:53:15;5.15;;;3.22;;
17510;SDS011;8873;48.818;9.422;2023-08-01T05:55:43;5.72;;;2.80;;
17510;SDS011;8873;48.818;9.422;2023-08-01T05:58:12;3.83;;;3.10;;
17510;SDS011;8873;48.818;9.422;2023-08-01T06:00:40;6.20;;;3.58;;
17510;SDS011;8873;48.818;9.422;2023-08-01T06:03:07;5.65;;;2.72;;
17510;SDS011;8873;48.818;9.422;2023-08-01T06:05:35;4.75;;;3.00;;
17510;SDS011;8873;48.818;9.422;2023-08-01T06:08:05;3.53;;;2.95;;
17510;SDS011;8873;48.818;9.422;2023-08-01T06:10:32;4.18;;;2.92;;
17510;SDS011;8873;48.818;9.422;2023-08-01T06:13:00;6.00;;;3.30;;
17510;SDS011;8873;48.818;9.422;2023-08-01T06:15:30;7.07;;;3.58;;
17510;SDS011;8873;48.818;9.422;2023-08-01T06:17:58;4.88;;;2.75;;
17510;SDS011;8873;48.818;9.422;2023-08-01T06:20:26;5.30;;;2.90;;
17510;SDS011;8873;48.818;9.422;2023-08-01T06:22:53;5.20;;;3.20;;
17510;SDS011;8873;48.818;9.422;2023-08-01T06:25:21;4.25;;;2.80;;
17510;SDS011;8873;48.818;9.422;2023-08-01T06:27:49;4.60;;;2.90;;
17510;SDS011;8873;48.818;9.422;2023-08-01T06:30:18;3.33;;;2.97;;
17510;SDS011;8873;48.818;9.422;2023-08-01T06:32:50;3.85;;;3.13;;
17510;SDS011;8873;48.818;9.422;2023-08-01T06:35:18;6.97;;;3.65;;
17510;SDS011;8873;48.818;9.422;2023-08-01T06:37:46;7.00;;;3.65;;
17510;SDS011;8873;48.818;9.422;2023-08-01T06:40:13;4.85;;;3.08;;
17510;SDS011;8873;48.818;9.422;2023-08-01T06:42:42;8.90;;;3.88;;
17510;SDS011;8873;48.818;9.422;2023-08-01T06:45:09;5.72;;;3.53;;
17510;SDS011;8873;48.818;9.422;2023-08-01T06:47:37;6.57;;;3.53;;
17510;SDS011;8873;48.818;9.422;2023-08-01T06:50:07;5.60;;;3.75;;
17510;SDS011;8873;48.818;9.422;2023-08-01T06:52:35;9.85;;;3.92;;
17510;SDS011;8873;48.818;9.422;2023-08-01T06:55:03;6.32;;;4.00;;
17510;SDS011;8873;48.818;9.422;2023-08-01T06:57:31;7.90;;;4.18;;
17510;SDS011;8873;48.818;9.422;2023-08-01T06:59:59;5.28;;;3.80;;
17510;SDS011;8873;48.818;9.422;2023-08-01T07:02:27;11.35;;;4.47;;
17510;SDS011;8873;48.818;9.422;2023-08-01T07:04:55;7.18;;;4.32;;
17510;SDS011;8873;48.818;9.422;2023-08-01T07:07:24;10.43;;;4.68;;
17510;SDS011;8873;48.818;9.422;2023-08-01T07:09:52;10.80;;;4.45;;
17510;SDS011;8873;48.818;9.422;2023-08-01T07:12:20;7.30;;;4.20;;
17510;SDS011;8873;48.818;9.422;2023-08-01T07:14:48;8.00;;;4.45;;
17510;SDS011;8873;48.818;9.422;2023-08-01T07:17:16;8.48;;;4.82;;
17510;SDS011;8873;48.818;9.422;2023-08-01T07:19:43;12.60;;;4.88;;
17510;SDS011;8873;48.818;9.422;2023-08-01T07:22:11;10.18;;;5.00;;
17510;SDS011;8873;48.818;9.422;2023-08-01T07:24:40;8.93;;;4.95;;
17510;SDS011;8873;48.818;9.422;2023-08-01T07:27:08;9.00;;;4.85;;
17510;SDS011;8873;48.818;9.422;2023-08-01T07:29:36;9.35;;;4.75;;
17510;SDS011;8873;48.818;9.422;2023-08-01T07:32:04;9.50;;;4.90;;
17510;SDS011;8873;48.818;9.422;2023-08-01T07:34:33;9.52;;;4.57;;
17510;SDS011;8873;48.818;9.422;2023-08-01T07:37:01;8.82;;;4.70;;
17510;SDS011;8873;48.818;9.422;2023-08-01T07:39:28;9.10;;;4.95;;
17510;SDS011;8873;48.818;9.422;2023-08-01T07:41:57;8.40;;;5.10;;
17510;SDS011;8873;48.818;9.422;2023-08-01T07:44:25;13.40;;;5.93;;
17510;SDS011;8873;48.818;9.422;2023-08-01T07:46:53;7.72;;;5.15;;
17510;SDS011;8873;48.818;9.422;2023-08-01T07:49:21;8.57;;;4.47;;
17510;SDS011;8873;48.818;9.422;2023-08-01T07:51:49;9.35;;;5.13;;
17510;SDS011;8873;48.818;9.422;2023-08-01T07:54:17;8.60;;;4.93;;
17510;SDS011;8873;48.818;9.422;2023-08-01T07:56:45;11.23;;;4.72;;
17510;SDS011;8873;48.818;9.422;2023-08-01T07:59:16;11.85;;;4.85;;
17510;SDS011;8873;48.818;9.422;2023-08-01T08:01:44;6.72;;;4.18;;
17510;SDS011;8873;48.818;9.422;2023-08-01T08:04:12;7.20;;;4.03;;
17510;SDS011;8873;48.818;9.422;2023-08-01T08:06:40;8.77;;;4.32;;
17510;SDS011;8873;48.818;9.422;2023-08-01T08:09:10;8.90;;;4.35;;
17510;SDS011;8873;48.818;9.422;2023-08-01T08:11:38;7.40;;;3.92;;
17510;SDS011;8873;48.818;9.422;2023-08-01T08:14:06;5.15;;;3.35;;
17510;SDS011;8873;48.818;9.422;2023-08-01T08:16:35;3.97;;;3.20;;
17510;SDS011;8873;48.818;9.422;2023-08-01T08:19:03;6.57;;;3.83;;
17510;SDS011;8873;48.818;9.422;2023-08-01T08:21:31;4.40;;;2.85;;
17510;SDS011;8873;48.818;9.422;2023-08-01T08:23:58;4.57;;;2.88;;
17510;SDS011;8873;48.818;9.422;2023-08-01T08:26:26;4.50;;;3.25;;
17510;SDS011;8873;48.818;9.422;2023-08-01T08:28:54;5.78;;;3.20;;
17510;SDS011;8873;48.818;9.422;2023-08-01T08:31:22;7.82;;;3.58;;
17510;SDS011;8873;48.818;9.422;2023-08-01T08:33:51;5.78;;;3.22;;
17510;SDS011;8873;48.818;9.422;2023-08-01T08:36:18;7.03;;;3.42;;
17510;SDS011;8873;48.818;9.422;2023-08-01T08:38:46;5.28;;;3.28;;
17510;SDS011;8873;48.818;9.422;2023-08-01T08:41:14;5.88;;;3.10;;
17510;SDS011;8873;48.818;9.422;2023-08-01T08:43:44;5.53;;;3.15;;
17510;SDS011;8873;48.818;9.422;2023-08-01T08:46:14;4.30;;;3.15;;
17510;SDS011;8873;48.818;9.422;2023-08-01T08:48:46;4.78;;;2.90;;
17510;SDS011;8873;48.818;9.422;2023-08-01T08:51:16;5.28;;;3.00;;
17510;SDS011;8873;48.818;9.422;2023-08-01T08:53:45;6.20;;;3.55;;
17510;SDS011;8873;48.818;9.422;2023-08-01T08:56:18;5.95;;;3.53;;
17510;SDS011;8873;48.818;9.422;2023-08-01T08:59:07;5.90;;;3.67;;
17510;SDS011;8873;48.818;9.422;2023-08-01T09:01:43;4.95;;;3.10;;
17510;SDS011;8873;48.818;9.422;2023-08-01T09:04:18;4.53;;;3.40;;
17510;SDS011;8873;48.818;9.422;2023-08-01T09:06:52;4.78;;;3.28;;
17510;SDS011;8873;48.818;9.422;2023-08-01T09:09:23;6.25;;;3.30;;
17510;SDS011;8873;48.818;9.422;2023-08-01T09:12:05;4.53;;;3.10;;
17510;SDS011;8873;48.818;9.422;2023-08-01T09:14:42;4.97;;;3.00;;
17510;SDS011;8873;48.818;9.422;2023-08-01T09:17:16;4.25;;;2.90;;
17510;SDS011;8873;48.818;9.422;2023-08-01T09:19:54;6.35;;;3.55;;
17510;SDS011;8873;48.818;9.422;2023-08-01T09:22:26;2.78;;;2.55;;
17510;SDS011;8873;48.818;9.422;2023-08-01T09:24:54;3.08;;;2.67;;
17510;SDS011;8873;48.818;9.422;2023-08-01T09:27:22;4.15;;;3.35;;
17510;SDS011;8873;48.818;9.422;2023-08-01T09:29:50;10.65;;;2.50;;
17510;SDS011;8873;48.818;9.422;2023-08-01T09:32:20;3.22;;;2.28;;
17510;SDS011;8873;48.818;9.422;2023-08-01T09:34:48;4.32;;;2.28;;
17510;SDS011;8873;48.818;9.422;2023-08-01T09:37:27;2.85;;;2.55;;
17510;SDS011;8873;48.818;9.422;2023-08-01T09:40:09;2.90;;;2.42;;
17510;SDS011;8873;48.818;9.422;2023-08-01T09:42:38;4.88;;;2.63;;
17510;SDS011;8873;48.818;9.422;2023-08-01T09:45:16;3.58;;;2.53;;
17510;SDS011;8873;48.818;9.422;2023-08-01T09:47:45;2.70;;;2.13;;
17510;SDS011;8873;48.818;9.422;2023-08-01T09:50:19;2.88;;;2.15;;
17510;SDS011;8873;48.818;9.422;2023-08-01T09:52:49;3.95;;;2.30;;
17510;SDS011;8873;48.818;9.422;2023-08-01T09:55:20;2.00;;;1.90;;
17510;SDS011;8873;48.818;9.422;2023-08-01T09:57:51;2.72;;;2.53;;
17510;SDS011;8873;48.818;9.422;2023-08-01T10:00:21;4.05;;;2.33;;
17510;SDS011;8873;48.818;9.422;2023-08-01T10:02:49;2.75;;;2.10;;
17510;SDS011;8873;48.818;9.422;2023-08-01T10:05:20;4.65;;;3.40;;
17510;SDS011;8873;48.818;9.422;2023-08-01T10:07:50;4.28;;;2.20;;
17510;SDS011;8873;48.818;9.422;2023-08-01T10:10:19;2.05;;;1.95;;
17510;SDS011;8873;48.818;9.422;2023-08-01T10:12:51;2.25;;;1.95;;
17510;SDS011;8873;48.818;9.422;2023-08-01T10:15:22;2.13;;;1.90;;
17510;SDS011;8873;48.818;9.422;2023-08-01T10:17:51;2.35;;;1.75;;
17510;SDS011;8873;48.818;9.422;2023-08-01T10:20:23;3.45;;;2.50;;
17510;SDS011;8873;48.818;9.422;2023-08-01T10:23:03;2.53;;;1.75;;
17510;SDS011;8873;48.818;9.422;2023-08-01T10:25:35;1.58;;;1.50;;
17510;SDS011;8873;48.818;9.422;2023-08-01T10:28:06;1.80;;;1.70;;
17510;SDS011;8873;48.818;9.422;2023-08-01T10:30:34;1.55;;;1.45;;
17510;SDS011;8873;48.818;9.422;2023-08-01T10:33:02;1.63;;;1.52;;
17510;SDS011;8873;48.818;9.422;2023-08-01T10:35:32;2.25;;;1.70;;
17510;SDS011;8873;48.818;9.422;2023-08-01T10:38:05;1.10;;;1.10;;
17510;SDS011;8873;48.818;9.422;2023-08-01T10:40:34;1.33;;;1.33;;
17510;SDS011;8873;48.818;9.422;2023-08-01T10:43:20;1.60;;;1.50;;
17510;SDS011;8873;48.818;9.422;2023-08-01T10:46:01;1.30;;;1.20;;
17510;SDS011;8873;48.818;9.422;2023-08-01T10:48:32;2.47;;;1.10;;
17510;SDS011;8873;48.818;9.422;2023-08-01T10:51:00;2.78;;;1.20;;
17510;SDS011;8873;48.818;9.422;2023-08-01T10:53:38;1.40;;;1.40;;
17510;SDS011;8873;48.818;9.422;2023-08-01T10:56:14;1.50;;;1.40;;
17510;SDS011;8873;48.818;9.422;2023-08-01T10:58:42;1.38;;;1.30;;
17510;SDS011;8873;48.818;9.422;2023-08-01T11:01:13;1.38;;;1.30;;
17510;SDS011;8873;48.818;9.422;2023-08-01T11:03:41;2.15;;;1.35;;
17510;SDS011;8873;48.818;9.422;2023-08-01T11:06:11;1.58;;;1.33;;
17510;SDS011;8873;48.818;9.422;2023-08-01T11:08:44;1.10;;;1.10;;
17510;SDS011;8873;48.818;9.422;2023-08-01T11:11:18;1.20;;;1.20;;
17510;SDS011;8873;48.818;9.422;2023-08-01T11:13:52;1.10;;;1.10;;
17510;SDS011;8873;48.818;9.422;2023-08-01T11:16:23;1.00;;;1.00;;
17510;SDS011;8873;48.818;9.422;2023-08-01T11:19:04;1.20;;;1.17;;
17510;SDS011;8873;48.818;9.422;2023-08-01T11:21:38;1.83;;;1.50;;
17510;SDS011;8873;48.818;9.422;2023-08-01T11:24:27;1.00;;;1.00;;
17510;SDS011;8873;48.818;9.422;2023-08-01T11:27:04;1.00;;;1.00;;
17510;SDS011;8873;48.818;9.422;2023-08-01T11:29:42;1.00;;;1.00;;
17510;SDS011;8873;48.818;9.422;2023-08-01T11:32:43;1.08;;;1.08;;
17510;SDS011;8873;48.818;9.422;2023-08-01T11:35:28;1.20;;;1.20;;
17510;SDS011;8873;48.818;9.422;2023-08-01T11:38:21;1.00;;;1.00;;
17510;SDS011;8873;48.818;9.422;2023-08-01T11:41:03;1.33;;;1.10;;
17510;SDS011;8873;48.818;9.422;2023-08-01T11:43:45;1.30;;;1.30;;
17510;SDS011;8873;48.818;9.422;2023-08-01T11:46:20;10.45;;;2.22;;
17510;SDS011;8873;48.818;9.422;2023-08-01T11:49:13;1.58;;;1.48;;
17510;SDS011;8873;48.818;9.422;2023-08-01T11:51:50;2.10;;;1.40;;
17510;SDS011;8873;48.818;9.422;2023-08-01T11:54:45;2.65;;;1.23;;
17510;SDS011;8873;48.818;9.422;2023-08-01T11:57:28;1.75;;;1.27;;
17510;SDS011;8873;48.818;9.422;2023-08-01T11:59:59;1.50;;;1.40;;
17510;SDS011;8873;48.818;9.422;2023-08-01T12:02:32;1.42;;;1.33;;
17510;SDS011;8873;48.818;9.422;2023-08-01T12:05:27;1.17;;;1.17;;
17510;SDS011;8873;48.818;9.422;2023-08-01T12:08:12;6.70;;;1.48;;
17510;SDS011;8873;48.818;9.422;2023-08-01T12:10:48;1.25;;;1.15;;
17510;SDS011;8873;48.818;9.422;2023-08-01T12:13:37;1.75;;;1.20;;
17510;SDS011;8873;48.818;9.422;2023-08-01T12:16:05;8.85;;;1.42;;
17510;SDS011;8873;48.818;9.422;2023-08-01T12:19:16;1.65;;;1.55;;
17510;SDS011;8873;48.818;9.422;2023-08-01T12:21:52;4.82;;;1.48;;
17510;SDS011;8873;48.818;9.422;2023-08-01T12:24:36;1.50;;;1.40;;
17510;SDS011;8873;48.818;9.422;2023-08-01T12:27:20;1.90;;;1.33;;
17510;SDS011;8873;48.818;9.422;2023-08-01T12:29:54;1.45;;;1.35;;
17510;SDS011;8873;48.818;9.422;2023-08-01T12:32:22;2.60;;;1.48;;
17510;SDS011;8873;48.818;9.422;2023-08-01T12:34:56;1.42;;;1.30;;
17510;SDS011;8873;48.818;9.422;2023-08-01T12:37:37;1.40;;;1.30;;
17510;SDS011;8873;48.818;9.422;2023-08-01T12:40:14;1.63;;;1.52;;
17510;SDS011;8873;48.818;9.422;2023-08-01T12:42:42;3.58;;;1.30;;
17510;SDS011;8873;48.818;9.422;2023-08-01T12:45:12;1.35;;;1.25;;
17510;SDS011;8873;48.818;9.422;2023-08-01T12:47:40;4.32;;;1.67;;
17510;SDS011;8873;48.818;9.422;2023-08-01T12:50:09;5.82;;;2.10;;
17510;SDS011;8873;48.818;9.422;2023-08-01T12:52:37;2.13;;;1.50;;
17510;SDS011;8873;48.818;9.422;2023-08-01T12:55:05;1.48;;;1.30;;
17510;SDS011;8873;48.818;9.422;2023-08-01T12:57:32;1.70;;;1.60;;
17510;SDS011;8873;48.818;9.422;2023-08-01T13:00:00;1.55;;;1.30;;
17510;SDS011;8873;48.818;9.422;2023-08-01T13:02:30;1.80;;;1.52;;
17510;SDS011;8873;48.818;9.422;2023-08-01T13:04:58;1.90;;;1.80;;
17510;SDS011;8873;48.818;9.422;2023-08-01T13:07:26;1.40;;;1.30;;
17510;SDS011;8873;48.818;9.422;2023-08-01T13:09:54;2.72;;;1.70;;
17510;SDS011;8873;48.818;9.422;2023-08-01T13:12:21;1.40;;;1.30;;
17510;SDS011;8873;48.818;9.422;2023-08-01T13:14:49;1.65;;;1.55;;
17510;SDS011;8873;48.818;9.422;2023-08-01T13:17:23;3.75;;;1.48;;
17510;SDS011;8873;48.818;9.422;2023-08-01T13:19:52;3.15;;;1.77;;
17510;SDS011;8873;48.818;9.422;2023-08-01T13:22:20;1.63;;;1.48;;
17510;SDS011;8873;48.818;9.422;2023-08-01T13:24:48;1.80;;;1.58;;
17510;SDS011;8873;48.818;9.422;2023-08-01T13:27:15;3.25;;;1.70;;
17510;SDS011;8873;48.818;9.422;2023-08-01T13:29:43;3.78;;;1.70;;
17510;SDS011;8873;48.818;9.422;2023-08-01T13:32:16;1.73;;;1.63;;
17510;SDS011;8873;48.818;9.422;2023-08-01T13:34:44;4.57;;;1.80;;
17510;SDS011;8873;48.818;9.422;2023-08-01T13:37:14;8.40;;;1.70;;
17510;SDS011;8873;48.818;9.422;2023-08-01T13:39:41;1.80;;;1.70;;
17510;SDS011;8873;48.818;9.422;2023-08-01T13:42:09;2.60;;;1.52;;
17510;SDS011;8873;48.818;9.422;2023-08-01T13:44:38;1.75;;;1.65;;
17510;SDS011;8873;48.818;9.422;2023-08-01T13:47:06;1.80;;;1.70;;
17510;SDS011;8873;48.818;9.422;2023-08-01T13:49:34;5.05;;;1.45;;
17510;SDS011;8873;48.818;9.422;2023-08-01T13:52:03;1.67;;;1.40;;
17510;SDS011;8873;48.818;9.422;2023-08-01T13:54:32;1.60;;;1.38;;
17510;SDS011;8873;48.818;9.422;2023-08-01T13:57:00;1.73;;;1.63;;
17510;SDS011;8873;48.818;9.422;2023-08-01T13:59:28;1.60;;;1.50;;
17510;SDS011;8873;48.818;9.422;2023-08-01T14:01:56;1.30;;;1.30;;
17510;SDS011;8873;48.818;9.422;2023-08-01T14:04:26;2.05;;;1.40;;
17510;SDS011;8873;48.818;9.422;2023-08-01T14:06:54;1.88;;;1.50;;
17510;SDS011;8873;48.818;9.422;2023-08-01T14:09:22;1.42;;;1.35;;
17510;SDS011;8873;48.818;9.422;2023-08-01T14:11:52;3.92;;;1.88;;
17510;SDS011;8873;48.818;9.422;2023-08-01T14:14:22;2.70;;;1.50;;
17510;SDS011;8873;48.818;9.422;2023-08-01T14:16:50;1.83;;;1.73;;
17510;SDS011;8873;48.818;9.422;2023-08-01T14:19:18;1.92;;;1.70;;
17510;SDS011;8873;48.818;9.422;2023-08-01T14:21:46;1.50;;;1.40;;
17510;SDS011;8873;48.818;9.422;2023-08-01T14:24:14;1.70;;;1.60;;
17510;SDS011;8873;48.818;9.422;2023-08-01T14:26:41;1.92;;;1.35;;
17510;SDS011;8873;48.818;9.422;2023-08-01T14:29:11;2.15;;;1.80;;
17510;SDS011;8873;48.818;9.422;2023-08-01T14:31:38;2.00;;;1.52;;
17510;SDS011;8873;48.818;9.422;2023-08-01T14:34:06;1.80;;;1.70;;
17510;SDS011;8873;48.818;9.422;2023-08-01T14:36:34;2.25;;;1.70;;
17510;SDS011;8873;48.818;9.422;2023-08-01T14:39:01;2.20;;;1.77;;
17510;SDS011;8873;48.818;9.422;2023-08-01T14:41:46;1.63;;;1.52;;
17510;SDS011;8873;48.818;9.422;2023-08-01T14:44:32;1.42;;;1.40;;
17510;SDS011;8873;48.818;9.422;2023-08-01T14:46:59;1.70;;;1.60;;
17510;SDS011;8873;48.818;9.422;2023-08-01T14:49:27;1.50;;;1.50;;
17510;SDS011;8873;48.818;9.422;2023-08-01T14:51:56;5.38;;;1.70;;
17510;SDS011;8873;48.818;9.422;2023-08-01T14:54:23;1.67;;;1.58;;
17510;SDS011;8873;48.818;9.422;2023-08-01T14:57:05;1.77;;;1.67;;
17510;SDS011;8873;48.818;9.422;2023-08-01T14:59:34;1.55;;;1.50;;
17510;SDS011;8873;48.818;9.422;2023-08-01T15:02:03;1.92;;;1.83;;
17510;SDS011;8873;48.818;9.422;2023-08-01T15:04:31;1.85;;;1.65;;
17510;SDS011;8873;48.818;9.422;2023-08-01T15:07:00;1.60;;;1.58;;
17510;SDS011;8873;48.818;9.422;2023-08-01T15:09:28;6.25;;;1.50;;
17510;SDS011;8873;48.818;9.422;2023-08-01T15:11:56;1.77;;;1.60;;
17510;SDS011;8873;48.818;9.422;2023-08-01T15:14:23;2.85;;;1.45;;
17510;SDS011;8873;48.818;9.422;2023-08-01T15:16:52;1.42;;;1.40;;